sensor_id;sensor_type;location;lat;lon;timestamp;pressure;altitude;pressure_sealevel;temperature;humidity
55490;BME280;44029;52.956;4.772;2022-07-15T00:01:49;102365.50;;;16.93;100.00
55490;BME280;44029;52.956;4.772;2022-07-15T00:04:15;102361.97;;;16.98;100.00
55490;BME280;44029;52.956;4.772;2022-07-15T00:06:40;102359.78;;;17.00;100.00
55490;BME280;44029;52.956;4.772;2022-07-15T00:09:06;102364.66;;;16.93;100.00
55490;BME280;44029;52.956;4.772;2022-07-15T00:11:31;102352.25;;;16.95;100.00
55490;BME280;44029;52.956;4.772;2022-07-15T00:13:56;102353.41;;;16.99;100.00
55490;BME280;44029;52.956;4.772;2022-07-15T00:16:22;102347.06;;;16.99;100.00
55490;BME280;44029;52.956;4.772;2022-07-15T00:18:47;102354.31;;;17.05;100.00
55490;BME280;44029;52.956;4.772;2022-07-15T00:21:14;102356.63;;;17.13;100.00
55490;BME280;44029;52.956;4.772;2022-07-15T00:23:39;102352.19;;;17.12;100.00
55490;BME280;44029;52.956;4.772;2022-07-15T00:26:04;102355.72;;;17.08;100.00
55490;BME280;44029;52.956;4.772;2022-07-15T00:28:30;102362.63;;;17.05;100.00
55490;BME280;44029;52.956;4.772;2022-07-15T00:30:56;102365.50;;;16.93;100.00
55490;BME280;44029;52.956;4.772;2022-07-15T00:33:21;102359.59;;;16.85;100.00
55490;BME280;44029;52.956;4.772;2022-07-15T00:35:46;102366.78;;;16.86;100.00
55490;BME280;44029;52.956;4.772;2022-07-15T00:38:12;102367.09;;;16.89;100.00
55490;BME280;44029;52.956;4.772;2022-07-15T00:40:45;102369.88;;;16.89;100.00
55490;BME280;44029;52.956;4.772;2022-07-15T00:43:10;102362.47;;;16.95;100.00
55490;BME280;44029;52.956;4.772;2022-07-15T00:45:36;102364.59;;;16.88;100.00
55490;BME280;44029;52.956;4.772;2022-07-15T00:48:01;102358.81;;;16.89;100.00
55490;BME280;44029;52.956;4.772;2022-07-15T00:50:28;102363.59;;;16.94;100.00
55490;BME280;44029;52.956;4.772;2022-07-15T00:53:06;102367.19;;;16.77;100.00
55490;BME280;44029;52.956;4.772;2022-07-15T00:55:37;102355.00;;;16.78;100.00
55490;BME280;44029;52.956;4.772;2022-07-15T00:58:04;102349.16;;;16.75;100.00
55490;BME280;44029;52.956;4.772;2022-07-15T01:00:31;102359.63;;;16.73;100.00
55490;BME280;44029;52.956;4.772;2022-07-15T01:02:58;102360.22;;;16.75;100.00
55490;BME280;44029;52.956;4.772;2022-07-15T01:05:25;102354.63;;;16.70;100.00
55490;BME280;44029;52.956;4.772;2022-07-15T01:07:51;102357.44;;;16.75;100.00
55490;BME280;44029;52.956;4.772;2022-07-15T01:10:21;102366.19;;;16.67;100.00
55490;BME280;44029;52.956;4.772;2022-07-15T01:12:48;102356.16;;;16.60;100.00
55490;BME280;44029;52.956;4.772;2022-07-15T01:15:14;102355.16;;;16.50;100.00
55490;BME280;44029;52.956;4.772;2022-07-15T01:17:39;102351.81;;;16.48;100.00
55490;BME280;44029;52.956;4.772;2022-07-15T01:20:06;102351.81;;;16.48;100.00
55490;BME280;44029;52.956;4.772;2022-07-15T01:22:32;102343.09;;;16.39;100.00
55490;BME280;44029;52.956;4.772;2022-07-15T01:24:57;102349.13;;;16.36;100.00
55490;BME280;44029;52.956;4.772;2022-07-15T01:27:24;102350.56;;;16.38;100.00
55490;BME280;44029;52.956;4.772;2022-07-15T01:29:49;102349.47;;;16.39;100.00
55490;BME280;44029;52.956;4.772;2022-07-15T01:32:15;102348.78;;;16.32;100.00
55490;BME280;44029;52.956;4.772;2022-07-15T01:34:40;102353.00;;;16.35;100.00
55490;BME280;44029;52.956;4.772;2022-07-15T01:37:06;102344.28;;;16.26;100.00
55490;BME280;44029;52.956;4.772;2022-07-15T01:39:31;102346.63;;;16.34;100.00
55490;BME280;44029;52.956;4.772;2022-07-15T01:41:56;102347.38;;;16.30;100.00
55490;BME280;44029;52.956;4.772;2022-07-15T01:44:22;102343.59;;;16.36;100.00
55490;BME280;44029;52.956;4.772;2022-07-15T01:46:47;102340.66;;;16.42;100.00
55490;BME280;44029;52.956;4.772;2022-07-15T01:49:12;102353.91;;;16.40;100.00
55490;BME280;44029;52.956;4.772;2022-07-15T01:51:50;102349.13;;;16.36;100.00
55490;BME280;44029;52.956;4.772;2022-07-15T01:54:19;102349.72;;;16.38;100.00
55490;BME280;44029;52.956;4.772;2022-07-15T01:56:44;102349.56;;;16.28;100.00
55490;BME280;44029;52.956;4.772;2022-07-15T01:59:09;102350.91;;;16.25;100.00
55490;BME280;44029;52.956;4.772;2022-07-15T02:01:35;102356.50;;;16.30;100.00
55490;BME280;44029;52.956;4.772;2022-07-15T02:04:00;102353.50;;;16.32;100.00
55490;BME280;44029;52.956;4.772;2022-07-15T02:06:26;102347.38;;;16.30;100.00
55490;BME280;44029;52.956;4.772;2022-07-15T02:08:51;102351.97;;;16.24;100.00
55490;BME280;44029;52.956;4.772;2022-07-15T02:11:17;102352.66;;;16.31;100.00
55490;BME280;44029;52.956;4.772;2022-07-15T02:13:42;102345.78;;;16.34;100.00
55490;BME280;44029;52.956;4.772;2022-07-15T02:16:08;102348.72;;;16.27;100.00
55490;BME280;44029;52.956;4.772;2022-07-15T02:18:33;102356.00;;;16.33;100.00
55490;BME280;44029;52.956;4.772;2022-07-15T02:20:59;102359.53;;;16.29;100.00
55490;BME280;44029;52.956;4.772;2022-07-15T02:23:26;102352.31;;;16.28;100.00
55490;BME280;44029;52.956;4.772;2022-07-15T02:25:51;102348.47;;;16.29;100.00
55490;BME280;44029;52.956;4.772;2022-07-15T02:28:16;102355.66;;;16.30;100.00
55490;BME280;44029;52.956;4.772;2022-07-15T02:30:43;102356.34;;;16.37;100.00
55490;BME280;44029;52.956;4.772;2022-07-15T02:33:09;102358.94;;;16.27;100.00
55490;BME280;44029;52.956;4.772;2022-07-15T02:35:35;102349.06;;;16.31;100.00
55490;BME280;44029;52.956;4.772;2022-07-15T02:38:01;102354.84;;;16.29;100.00
55490;BME280;44029;52.956;4.772;2022-07-15T02:40:27;102357.59;;;16.29;100.00
55490;BME280;44029;52.956;4.772;2022-07-15T02:42:55;102354.94;;;16.34;100.00
55490;BME280;44029;52.956;4.772;2022-07-15T02:45:22;102350.97;;;16.30;100.00
55490;BME280;44029;52.956;4.772;2022-07-15T02:47:48;102351.75;;;16.26;100.00
55490;BME280;44029;52.956;4.772;2022-07-15T02:50:14;102360.97;;;16.31;100.00
55490;BME280;44029;52.956;4.772;2022-07-15T02:52:40;102348.72;;;16.27;100.00
55490;BME280;44029;52.956;4.772;2022-07-15T02:55:08;102356.50;;;16.30;100.00
55490;BME280;44029;52.956;4.772;2022-07-15T02:57:34;102350.13;;;16.30;100.00
55490;BME280;44029;52.956;4.772;2022-07-15T03:00:00;102360.03;;;16.26;100.00
55490;BME280;44029;52.956;4.772;2022-07-15T03:02:26;102359.22;;;16.25;100.00
55490;BME280;44029;52.956;4.772;2022-07-15T03:04:51;102362.56;;;16.27;100.00
55490;BME280;44029;52.956;4.772;2022-07-15T03:07:17;102374.94;;;16.24;100.00
55490;BME280;44029;52.956;4.772;2022-07-15T03:09:42;102366.50;;;16.31;100.00
55490;BME280;44029;52.956;4.772;2022-07-15T03:12:07;102362.22;;;16.23;100.00
55490;BME280;44029;52.956;4.772;2022-07-15T03:14:33;102360.88;;;16.26;100.00
55490;BME280;44029;52.956;4.772;2022-07-15T03:16:58;102366.97;;;16.28;100.00
55490;BME280;44029;52.956;4.772;2022-07-15T03:19:24;102363.13;;;16.29;100.00
55490;BME280;44029;52.956;4.772;2022-07-15T03:21:49;102366.06;;;16.39;100.00
55490;BME280;44029;52.956;4.772;2022-07-15T03:24:15;102369.16;;;16.43;100.00
55490;BME280;44029;52.956;4.772;2022-07-15T03:26:41;102368.56;;;16.41;100.00
55490;BME280;44029;52.956;4.772;2022-07-15T03:29:06;102369.59;;;16.35;100.00
55490;BME280;44029;52.956;4.772;2022-07-15T03:31:32;102371.59;;;16.39;100.00
55490;BME280;44029;52.956;4.772;2022-07-15T03:33:57;102374.09;;;16.41;100.00
55490;BME280;44029;52.956;4.772;2022-07-15T03:36:23;102374.28;;;16.34;100.00
55490;BME280;44029;52.956;4.772;2022-07-15T03:38:49;102378.97;;;16.34;100.00
55490;BME280;44029;52.956;4.772;2022-07-15T03:41:17;102374.53;;;16.33;100.00
55490;BME280;44029;52.956;4.772;2022-07-15T03:43:42;102379.38;;;16.42;100.00
55490;BME280;44029;52.956;4.772;2022-07-15T03:46:07;102384.59;;;16.39;100.00
55490;BME280;44029;52.956;4.772;2022-07-15T03:48:33;102378.44;;;16.71;100.00
55490;BME280;44029;52.956;4.772;2022-07-15T03:50:58;102379.50;;;17.26;100.00
55490;BME280;44029;52.956;4.772;2022-07-15T03:53:24;102384.66;;;17.39;100.00
55490;BME280;44029;52.956;4.772;2022-07-15T03:55:49;102382.03;;;18.04;100.00
55490;BME280;44029;52.956;4.772;2022-07-15T03:58:14;102371.38;;;18.55;100.00
55490;BME280;44029;52.956;4.772;2022-07-15T04:00:40;102374.44;;;18.96;100.00
55490;BME280;44029;52.956;4.772;2022-07-15T04:03:05;102374.97;;;19.66;100.00
55490;BME280;44029;52.956;4.772;2022-07-15T04:05:30;102374.22;;;20.53;100.00
55490;BME280;44029;52.956;4.772;2022-07-15T04:07:56;102366.97;;;20.73;100.00
55490;BME280;44029;52.956;4.772;2022-07-15T04:10:21;102365.00;;;20.89;100.00
55490;BME280;44029;52.956;4.772;2022-07-15T04:12:47;102359.50;;;21.33;100.00
55490;BME280;44029;52.956;4.772;2022-07-15T04:15:12;102366.72;;;22.34;100.00
55490;BME280;44029;52.956;4.772;2022-07-15T04:17:39;102359.19;;;23.12;100.00
55490;BME280;44029;52.956;4.772;2022-07-15T04:20:07;102354.66;;;23.16;100.00
55490;BME280;44029;52.956;4.772;2022-07-15T04:22:43;102358.72;;;23.05;100.00
55490;BME280;44029;52.956;4.772;2022-07-15T04:25:10;102363.91;;;23.35;100.00
55490;BME280;44029;52.956;4.772;2022-07-15T04:27:36;102369.25;;;23.32;100.00
55490;BME280;44029;52.956;4.772;2022-07-15T04:30:06;102368.81;;;22.47;100.00
55490;BME280;44029;52.956;4.772;2022-07-15T04:32:32;102374.97;;;21.70;100.00
55490;BME280;44029;52.956;4.772;2022-07-15T04:34:57;102385.03;;;21.01;100.00
55490;BME280;44029;52.956;4.772;2022-07-15T04:37:23;102393.16;;;20.20;100.00
55490;BME280;44029;52.956;4.772;2022-07-15T04:39:48;102387.03;;;20.03;100.00
55490;BME280;44029;52.956;4.772;2022-07-15T04:42:14;102389.25;;;20.83;100.00
55490;BME280;44029;52.956;4.772;2022-07-15T04:44:39;102398.72;;;20.41;100.00
55490;BME280;44029;52.956;4.772;2022-07-15T04:47:05;102399.25;;;19.86;100.00
55490;BME280;44029;52.956;4.772;2022-07-15T04:49:30;102392.88;;;20.06;100.00
55490;BME280;44029;52.956;4.772;2022-07-15T04:52:15;102399.84;;;20.30;100.00
55490;BME280;44029;52.956;4.772;2022-07-15T04:54:40;102408.47;;;20.13;100.00
55490;BME280;44029;52.956;4.772;2022-07-15T04:57:06;102404.53;;;19.88;100.00
55490;BME280;44029;52.956;4.772;2022-07-15T04:59:31;102402.06;;;20.07;100.00
55490;BME280;44029;52.956;4.772;2022-07-15T05:01:57;102399.81;;;20.04;100.00
55490;BME280;44029;52.956;4.772;2022-07-15T05:04:22;102394.25;;;19.94;100.00
55490;BME280;44029;52.956;4.772;2022-07-15T05:06:48;102395.63;;;19.86;100.00
55490;BME280;44029;52.956;4.772;2022-07-15T05:09:14;102390.34;;;20.00;100.00
55490;BME280;44029;52.956;4.772;2022-07-15T05:11:39;102397.34;;;20.13;100.00
55490;BME280;44029;52.956;4.772;2022-07-15T05:14:05;102388.97;;;20.02;100.00
55490;BME280;44029;52.956;4.772;2022-07-15T05:16:30;102393.41;;;19.88;100.00
55490;BME280;44029;52.956;4.772;2022-07-15T05:18:56;102395.91;;;19.84;100.00
55490;BME280;44029;52.956;4.772;2022-07-15T05:21:21;102389.81;;;20.03;100.00
55490;BME280;44029;52.956;4.772;2022-07-15T05:23:47;102394.84;;;20.21;100.00
55490;BME280;44029;52.956;4.772;2022-07-15T05:26:12;102388.97;;;19.97;100.00
55490;BME280;44029;52.956;4.772;2022-07-15T05:28:38;102393.97;;;20.05;100.00
55490;BME280;44029;52.956;4.772;2022-07-15T05:31:07;102390.63;;;19.98;100.00
55490;BME280;44029;52.956;4.772;2022-07-15T05:33:32;102381.44;;;19.87;100.00
55490;BME280;44029;52.956;4.772;2022-07-15T05:35:57;102390.91;;;19.92;100.00
55490;BME280;44029;52.956;4.772;2022-07-15T05:38:24;102391.94;;;19.70;100.00
55490;BME280;44029;52.956;4.772;2022-07-15T05:40:50;102387.00;;;19.87;100.00
55490;BME280;44029;52.956;4.772;2022-07-15T05:43:15;102392.31;;;20.09;100.00
55490;BME280;44029;52.956;4.772;2022-07-15T05:45:41;102390.63;;;19.98;100.00
55490;BME280;44029;52.956;4.772;2022-07-15T05:48:06;102390.94;;;20.12;100.00
55490;BME280;44029;52.956;4.772;2022-07-15T05:50:32;102395.84;;;19.64;100.00
55490;BME280;44029;52.956;4.772;2022-07-15T05:52:57;102391.47;;;19.94;100.00
55490;BME280;44029;52.956;4.772;2022-07-15T05:55:22;102387.31;;;20.17;100.00
55490;BME280;44029;52.956;4.772;2022-07-15T05:57:49;102379.78;;;20.74;100.00
55490;BME280;44029;52.956;4.772;2022-07-15T06:00:14;102370.13;;;21.86;100.00
55490;BME280;44029;52.956;4.772;2022-07-15T06:02:40;102365.53;;;23.61;100.00
55490;BME280;44029;52.956;4.772;2022-07-15T06:05:05;102374.94;;;24.22;98.42
55490;BME280;44029;52.956;4.772;2022-07-15T06:07:31;102370.63;;;24.76;95.05
55490;BME280;44029;52.956;4.772;2022-07-15T06:09:56;102369.72;;;24.34;95.13
55490;BME280;44029;52.956;4.772;2022-07-15T06:12:22;102369.78;;;24.29;99.02
55490;BME280;44029;52.956;4.772;2022-07-15T06:14:47;102367.03;;;24.89;95.73
55490;BME280;44029;52.956;4.772;2022-07-15T06:17:12;102359.94;;;25.20;95.08
55490;BME280;44029;52.956;4.772;2022-07-15T06:19:37;102375.75;;;25.30;90.60
55490;BME280;44029;52.956;4.772;2022-07-15T06:22:03;102370.59;;;26.41;88.05
55490;BME280;44029;52.956;4.772;2022-07-15T06:24:28;102374.75;;;25.98;88.98
55490;BME280;44029;52.956;4.772;2022-07-15T06:26:54;102367.56;;;26.29;86.39
55490;BME280;44029;52.956;4.772;2022-07-15T06:29:19;102379.91;;;26.50;83.49
55490;BME280;44029;52.956;4.772;2022-07-15T06:31:45;102377.13;;;25.69;86.80
55490;BME280;44029;52.956;4.772;2022-07-15T06:34:10;102386.63;;;24.43;92.83
55490;BME280;44029;52.956;4.772;2022-07-15T06:36:35;102383.41;;;24.82;93.24
55490;BME280;44029;52.956;4.772;2022-07-15T06:39:01;102390.81;;;25.84;87.90
55490;BME280;44029;52.956;4.772;2022-07-15T06:41:27;102388.09;;;25.93;87.41
55490;BME280;44029;52.956;4.772;2022-07-15T06:43:52;102382.84;;;27.08;81.69
55490;BME280;44029;52.956;4.772;2022-07-15T06:46:17;102384.19;;;26.48;84.51
55490;BME280;44029;52.956;4.772;2022-07-15T06:48:43;102381.81;;;26.41;81.29
55490;BME280;44029;52.956;4.772;2022-07-15T06:51:08;102393.34;;;24.61;90.94
55490;BME280;44029;52.956;4.772;2022-07-15T06:53:34;102389.47;;;23.48;97.42
55490;BME280;44029;52.956;4.772;2022-07-15T06:55:59;102389.41;;;23.10;100.00
55490;BME280;44029;52.956;4.772;2022-07-15T06:58:25;102390.66;;;22.69;100.00
55490;BME280;44029;52.956;4.772;2022-07-15T07:00:50;102384.63;;;23.34;99.82
55490;BME280;44029;52.956;4.772;2022-07-15T07:03:15;102380.66;;;22.87;100.00
55490;BME280;44029;52.956;4.772;2022-07-15T07:05:41;102389.88;;;22.64;100.00
55490;BME280;44029;52.956;4.772;2022-07-15T07:08:06;102392.50;;;22.50;100.00
55490;BME280;44029;52.956;4.772;2022-07-15T07:10:32;102392.84;;;22.43;100.00
55490;BME280;44029;52.956;4.772;2022-07-15T07:12:58;102384.03;;;23.76;100.00
55490;BME280;44029;52.956;4.772;2022-07-15T07:15:23;102387.72;;;23.33;100.00
55490;BME280;44029;52.956;4.772;2022-07-15T07:17:50;102384.09;;;23.32;100.00
55490;BME280;44029;52.956;4.772;2022-07-15T07:20:16;102380.13;;;24.47;97.55
55490;BME280;44029;52.956;4.772;2022-07-15T07:22:41;102388.72;;;23.42;100.00
55490;BME280;44029;52.956;4.772;2022-07-15T07:25:07;102395.59;;;23.02;100.00
55490;BME280;44029;52.956;4.772;2022-07-15T07:27:33;102382.88;;;22.90;100.00
55490;BME280;44029;52.956;4.772;2022-07-15T07:29:58;102382.25;;;23.23;100.00
55490;BME280;44029;52.956;4.772;2022-07-15T07:32:24;102388.00;;;23.31;100.00
55490;BME280;44029;52.956;4.772;2022-07-15T07:34:49;102377.03;;;22.63;100.00
55490;BME280;44029;52.956;4.772;2022-07-15T07:37:15;102376.59;;;23.04;100.00
55490;BME280;44029;52.956;4.772;2022-07-15T07:39:41;102378.69;;;23.60;100.00
55490;BME280;44029;52.956;4.772;2022-07-15T07:42:06;102382.75;;;24.58;98.33
55490;BME280;44029;52.956;4.772;2022-07-15T07:44:31;102382.75;;;23.68;100.00
55490;BME280;44029;52.956;4.772;2022-07-15T07:46:57;102387.59;;;23.43;100.00
55490;BME280;44029;52.956;4.772;2022-07-15T07:49:22;102390.63;;;23.47;100.00
55490;BME280;44029;52.956;4.772;2022-07-15T07:51:47;102390.72;;;23.80;100.00
55490;BME280;44029;52.956;4.772;2022-07-15T07:54:13;102385.50;;;24.11;100.00
55490;BME280;44029;52.956;4.772;2022-07-15T07:56:38;102388.06;;;24.07;98.47
55490;BME280;44029;52.956;4.772;2022-07-15T07:59:03;102384.38;;;23.93;97.64
55490;BME280;44029;52.956;4.772;2022-07-15T08:01:29;102393.13;;;24.05;97.28
55490;BME280;44029;52.956;4.772;2022-07-15T08:03:54;102404.34;;;23.86;97.24
55490;BME280;44029;52.956;4.772;2022-07-15T08:06:19;102395.88;;;24.10;97.29
55490;BME280;44029;52.956;4.772;2022-07-15T08:08:46;102394.31;;;23.61;98.81
55490;BME280;44029;52.956;4.772;2022-07-15T08:11:11;102394.66;;;23.79;100.00
55490;BME280;44029;52.956;4.772;2022-07-15T08:13:38;102404.53;;;23.52;98.66
55490;BME280;44029;52.956;4.772;2022-07-15T08:16:04;102409.34;;;23.46;100.00
55490;BME280;44029;52.956;4.772;2022-07-15T08:18:29;102396.22;;;23.47;99.21
55490;BME280;44029;52.956;4.772;2022-07-15T08:20:55;102398.06;;;23.32;100.00
55490;BME280;44029;52.956;4.772;2022-07-15T08:23:20;102402.44;;;23.82;100.00
55490;BME280;44029;52.956;4.772;2022-07-15T08:25:48;102400.34;;;23.30;100.00
55490;BME280;44029;52.956;4.772;2022-07-15T08:28:14;102397.34;;;23.46;100.00
55490;BME280;44029;52.956;4.772;2022-07-15T08:30:39;102397.03;;;25.44;94.50
55490;BME280;44029;52.956;4.772;2022-07-15T08:33:04;102399.72;;;26.00;89.10
55490;BME280;44029;52.956;4.772;2022-07-15T08:35:30;102405.44;;;25.58;88.08
55490;BME280;44029;52.956;4.772;2022-07-15T08:37:55;102397.75;;;24.95;93.90
55490;BME280;44029;52.956;4.772;2022-07-15T08:40:22;102390.41;;;24.99;95.21
55490;BME280;44029;52.956;4.772;2022-07-15T08:42:49;102393.59;;;24.92;92.19
55490;BME280;44029;52.956;4.772;2022-07-15T08:45:15;102395.28;;;24.93;94.17
55490;BME280;44029;52.956;4.772;2022-07-15T08:47:43;102389.97;;;24.92;94.78
55490;BME280;44029;52.956;4.772;2022-07-15T08:50:11;102393.44;;;25.30;91.97
55490;BME280;44029;52.956;4.772;2022-07-15T08:52:38;102389.88;;;25.38;92.35
55490;BME280;44029;52.956;4.772;2022-07-15T08:55:05;102392.78;;;26.20;91.24
55490;BME280;44029;52.956;4.772;2022-07-15T08:57:31;102383.94;;;26.35;87.73
55490;BME280;44029;52.956;4.772;2022-07-15T08:59:56;102375.38;;;26.40;87.44
55490;BME280;44029;52.956;4.772;2022-07-15T09:02:22;102382.69;;;26.41;88.15
55490;BME280;44029;52.956;4.772;2022-07-15T09:08:01;102377.47;;;25.53;88.83
55490;BME280;44029;52.956;4.772;2022-07-15T09:13:21;102381.00;;;27.03;86.40
55490;BME280;44029;52.956;4.772;2022-07-15T09:15:47;102381.00;;;26.40;88.99
55490;BME280;44029;52.956;4.772;2022-07-15T09:18:16;102381.41;;;26.25;93.53
55490;BME280;44029;52.956;4.772;2022-07-15T09:20:43;102375.69;;;25.71;93.05
55490;BME280;44029;52.956;4.772;2022-07-15T09:23:11;102375.31;;;24.95;99.66
55490;BME280;44029;52.956;4.772;2022-07-15T09:25:38;102368.06;;;25.21;100.00
55490;BME280;44029;52.956;4.772;2022-07-15T09:28:06;102369.94;;;25.12;100.00
55490;BME280;44029;52.956;4.772;2022-07-15T09:30:37;102376.66;;;25.39;100.00
55490;BME280;44029;52.956;4.772;2022-07-15T09:33:24;102362.78;;;25.70;97.07
55490;BME280;44029;52.956;4.772;2022-07-15T09:36:33;102375.47;;;26.04;97.15
55490;BME280;44029;52.956;4.772;2022-07-15T09:39:00;102367.06;;;25.68;95.49
55490;BME280;44029;52.956;4.772;2022-07-15T09:44:07;102361.38;;;25.95;94.83
55490;BME280;44029;52.956;4.772;2022-07-15T09:52:00;102370.94;;;25.44;93.29
55490;BME280;44029;52.956;4.772;2022-07-15T09:54:28;102366.31;;;25.25;95.46
55490;BME280;44029;52.956;4.772;2022-07-15T09:56:58;102377.09;;;25.18;96.98
55490;BME280;44029;52.956;4.772;2022-07-15T09:59:25;102370.56;;;24.95;99.27
55490;BME280;44029;52.956;4.772;2022-07-15T10:01:50;102358.81;;;25.21;99.82
55490;BME280;44029;52.956;4.772;2022-07-15T10:04:21;102361.50;;;25.26;99.05
55490;BME280;44029;52.956;4.772;2022-07-15T10:06:48;102359.72;;;25.58;97.26
55490;BME280;44029;52.956;4.772;2022-07-15T10:09:14;102366.25;;;25.53;96.00
55490;BME280;44029;52.956;4.772;2022-07-15T10:11:45;102355.56;;;25.78;96.23
55490;BME280;44029;52.956;4.772;2022-07-15T10:22:55;102353.84;;;26.04;93.44
55490;BME280;44029;52.956;4.772;2022-07-15T10:25:51;102351.59;;;25.93;92.19
55490;BME280;44029;52.956;4.772;2022-07-15T10:33:38;102345.69;;;25.44;91.54
55490;BME280;44029;52.956;4.772;2022-07-15T10:36:05;102341.47;;;25.33;94.14
55490;BME280;44029;52.956;4.772;2022-07-15T10:38:32;102355.13;;;25.48;92.86
55490;BME280;44029;52.956;4.772;2022-07-15T10:41:08;102342.34;;;25.92;95.02
55490;BME280;44029;52.956;4.772;2022-07-15T10:46:04;102338.59;;;25.83;94.21
55490;BME280;44029;52.956;4.772;2022-07-15T10:48:30;102341.78;;;25.68;95.39
55490;BME280;44029;52.956;4.772;2022-07-15T10:50:56;102337.31;;;25.30;96.12
55490;BME280;44029;52.956;4.772;2022-07-15T10:53:24;102343.66;;;24.80;100.00
55490;BME280;44029;52.956;4.772;2022-07-15T10:55:51;102343.97;;;24.79;100.00
55490;BME280;44029;52.956;4.772;2022-07-15T10:58:16;102339.94;;;24.99;100.00
55490;BME280;44029;52.956;4.772;2022-07-15T11:00:43;102343.53;;;24.85;100.00
55490;BME280;44029;52.956;4.772;2022-07-15T11:03:16;102336.59;;;24.97;100.00
55490;BME280;44029;52.956;4.772;2022-07-15T11:13:43;102329.63;;;24.66;100.00
55490;BME280;44029;52.956;4.772;2022-07-15T11:16:10;102327.78;;;24.62;100.00
55490;BME280;44029;52.956;4.772;2022-07-15T11:18:56;102335.03;;;24.63;100.00
55490;BME280;44029;52.956;4.772;2022-07-15T11:21:23;102342.31;;;24.45;100.00
55490;BME280;44029;52.956;4.772;2022-07-15T11:23:50;102329.38;;;24.49;100.00
55490;BME280;44029;52.956;4.772;2022-07-15T11:26:17;102331.78;;;24.56;100.00
55490;BME280;44029;52.956;4.772;2022-07-15T11:28:53;102337.69;;;24.54;100.00
55490;BME280;44029;52.956;4.772;2022-07-15T11:31:25;102343.19;;;24.45;100.00
55490;BME280;44029;52.956;4.772;2022-07-15T11:33:54;102327.91;;;24.51;100.00
55490;BME280;44029;52.956;4.772;2022-07-15T11:36:21;102337.91;;;24.58;100.00
55490;BME280;44029;52.956;4.772;2022-07-15T11:38:47;102333.25;;;24.67;100.00
55490;BME280;44029;52.956;4.772;2022-07-15T11:41:13;102329.28;;;24.54;100.00
55490;BME280;44029;52.956;4.772;2022-07-15T11:44:03;102325.06;;;24.70;100.00
55490;BME280;44029;52.956;4.772;2022-07-15T11:46:48;102331.28;;;24.21;100.00
55490;BME280;44029;52.956;4.772;2022-07-15T11:49:29;102335.22;;;24.20;100.00
55490;BME280;44029;52.956;4.772;2022-07-15T11:51:56;102326.88;;;24.47;100.00
55490;BME280;44029;52.956;4.772;2022-07-15T11:54:22;102319.59;;;24.46;100.00
55490;BME280;44029;52.956;4.772;2022-07-15T11:56:59;102328.28;;;24.17;100.00
55490;BME280;44029;52.956;4.772;2022-07-15T11:59:25;102319.34;;;24.15;100.00
55490;BME280;44029;52.956;4.772;2022-07-15T12:04:28;102311.66;;;24.54;100.00
55490;BME280;44029;52.956;4.772;2022-07-15T12:06:53;102312.97;;;24.28;100.00
55490;BME280;44029;52.956;4.772;2022-07-15T12:09:19;102318.00;;;24.12;100.00
55490;BME280;44029;52.956;4.772;2022-07-15T12:11:44;102309.81;;;24.16;100.00
55490;BME280;44029;52.956;4.772;2022-07-15T12:14:21;102316.13;;;24.55;100.00
55490;BME280;44029;52.956;4.772;2022-07-15T12:16:53;102313.50;;;24.11;100.00
55490;BME280;44029;52.956;4.772;2022-07-15T12:19:22;102304.88;;;24.41;100.00
55490;BME280;44029;52.956;4.772;2022-07-15T12:21:58;102303.50;;;24.24;100.00
55490;BME280;44029;52.956;4.772;2022-07-15T12:24:26;102308.63;;;24.03;100.00
55490;BME280;44029;52.956;4.772;2022-07-15T12:29:22;102299.25;;;24.41;100.00
55490;BME280;44029;52.956;4.772;2022-07-15T12:31:56;102296.47;;;24.41;100.00
55490;BME280;44029;52.956;4.772;2022-07-15T12:37:08;102307.22;;;24.66;100.00
55490;BME280;44029;52.956;4.772;2022-07-15T12:39:34;102303.06;;;24.78;100.00
55490;BME280;44029;52.956;4.772;2022-07-15T12:42:17;102309.69;;;24.54;100.00
55490;BME280;44029;52.956;4.772;2022-07-15T12:44:43;102317.38;;;24.76;100.00
55490;BME280;44029;52.956;4.772;2022-07-15T12:47:08;102314.50;;;24.67;100.00
55490;BME280;44029;52.956;4.772;2022-07-15T12:54:43;102312.97;;;24.28;100.00
55490;BME280;44029;52.956;4.772;2022-07-15T12:57:22;102320.22;;;24.29;100.00
55490;BME280;44029;52.956;4.772;2022-07-15T12:59:59;102314.00;;;24.46;100.00
55490;BME280;44029;52.956;4.772;2022-07-15T13:02:26;102316.66;;;24.84;100.00
55490;BME280;44029;52.956;4.772;2022-07-15T13:04:52;102317.91;;;24.64;100.00
55490;BME280;44029;52.956;4.772;2022-07-15T13:07:18;102319.78;;;24.22;100.00
55490;BME280;44029;52.956;4.772;2022-07-15T13:09:44;102320.66;;;24.50;100.00
55490;BME280;44029;52.956;4.772;2022-07-15T13:12:10;102321.31;;;24.61;100.00
55490;BME280;44029;52.956;4.772;2022-07-15T13:14:38;102318.19;;;24.49;100.00
55490;BME280;44029;52.956;4.772;2022-07-15T13:17:03;102316.94;;;24.41;100.00
55490;BME280;44029;52.956;4.772;2022-07-15T13:19:29;102323.72;;;24.68;100.00
55490;BME280;44029;52.956;4.772;2022-07-15T13:21:55;102327.47;;;24.30;100.00
55490;BME280;44029;52.956;4.772;2022-07-15T13:24:20;102313.41;;;24.49;100.00
55490;BME280;44029;52.956;4.772;2022-07-15T13:26:46;102311.69;;;24.67;100.00
55490;BME280;44029;52.956;4.772;2022-07-15T13:29:11;102317.91;;;24.31;100.00
55490;BME280;44029;52.956;4.772;2022-07-15T13:31:36;102314.28;;;24.17;100.00
55490;BME280;44029;52.956;4.772;2022-07-15T13:34:02;102312.81;;;24.53;100.00